Kezdőlap
METAR-TAF:

METAR-TAF

Repülőterek :

Meriden-Markham Municipal Airport

Meriden, Connecticut, Amerikai Egyesült Államok

földrajzi szélesség: 41-30-35N, földrajzi hosszúság: 072-49-40W, magasság: 31 m

Jelenlegi meteorológiai megfigyelések

A jelentés 51 perccel ezelõtt készült, 17:53 UTC
Nyugat-délnyugati szél 8 kt széllökések: 19 kt, délnyugati és nyugati között változik
Hőmérséklet 7°C
Páratartalom 45%
Légköri nyomás 1007 hPa
Látótávolság: 16.1 km
Borult 6500 lábon

METAR: KMMK 151753Z AUTO 25008G19KT 220V280 10SM OVC065 07/M04 A2973 RMK AO2 PK WND 29027/1655 RAB1656E16 SLP069 P0000 60000 T00671039 10072 20056 53017 $

Idő: 13:44 (18:44 UTC)


TAF: hiányzik

Meteorológiai megfigyelések és előrejelzések több, mint 4000 repülőtéren (METAR és TAF jelentéseket).

A térképen piros és sárga pontok jelzik az elérhető meteorológiai állomásokat.

Mozgassa az egeret a pont fölött, hogy megjelenjen az állomás neve.

Azután kattintson az időjárási megfigyelések és előrejelzések megtekintéséhez.

A térkép megváltoztatása: kattintson a fekete keresztel jelölt zöld gombra ráközelítéshez, a vonallal jelölt zöld gombra távolításhoz, vagy a zöld nyilakra a szomszédos térképek eléréséhez.


METAR-TAF: